createdAt,value
2022-09-12T00:01:27.120Z,16.70
2022-09-12T00:03:56.750Z,16.60
2022-09-12T00:06:30.435Z,16.60
2022-09-12T00:09:02.126Z,16.50
2022-09-12T00:11:30.267Z,16.50
2022-09-12T00:13:59.490Z,16.40
2022-09-12T00:16:29.107Z,16.40
2022-09-12T00:18:56.915Z,16.40
2022-09-12T00:21:24.862Z,16.30
2022-09-12T00:23:52.687Z,16.30
2022-09-12T00:26:21.139Z,16.20
2022-09-12T00:28:49.531Z,16.30
2022-09-12T00:31:20.555Z,16.20
2022-09-12T00:33:48.157Z,16.20
2022-09-12T00:36:19.544Z,16.20
2022-09-12T00:38:48.100Z,16.10
2022-09-12T00:41:44.985Z,16.10
2022-09-12T00:44:12.476Z,16.10
2022-09-12T00:46:48.522Z,16.10
2022-09-12T00:49:23.624Z,16.10
2022-09-12T00:52:13.247Z,16.10
2022-09-12T00:54:55.465Z,16.00
2022-09-12T00:57:27.980Z,16.00
2022-09-12T01:00:16.980Z,16.00
2022-09-12T01:02:48.486Z,16.00
2022-09-12T01:05:16.620Z,16.00
2022-09-12T01:07:44.774Z,16.00
2022-09-12T01:10:12.346Z,16.00
2022-09-12T01:12:41.301Z,16.00
2022-09-12T01:15:10.197Z,15.90
2022-09-12T01:18:00.593Z,16.00
2022-09-12T01:20:57.967Z,15.90
2022-09-12T01:23:43.370Z,15.90
2022-09-12T01:26:13.991Z,15.90
2022-09-12T01:29:26.445Z,15.90
2022-09-12T01:32:17.912Z,15.90
2022-09-12T01:35:01.490Z,15.80
2022-09-12T01:37:44.915Z,15.80
2022-09-12T01:40:22.409Z,15.80
2022-09-12T01:43:04.607Z,15.80
2022-09-12T01:45:50.171Z,15.80
2022-09-12T01:48:22.566Z,15.70
2022-09-12T01:51:04.146Z,15.70
2022-09-12T01:53:51.238Z,15.70
2022-09-12T01:56:27.523Z,15.70
2022-09-12T01:58:58.060Z,15.70
2022-09-12T02:01:36.630Z,15.70
2022-09-12T02:04:16.927Z,15.70
2022-09-12T02:07:11.651Z,15.70
2022-09-12T02:09:47.279Z,15.70
2022-09-12T02:12:19.218Z,15.70
2022-09-12T02:14:54.141Z,15.70
2022-09-12T02:17:24.661Z,15.70
2022-09-12T02:20:01.061Z,15.60
2022-09-12T02:22:31.564Z,15.70
2022-09-12T02:25:01.151Z,15.70
2022-09-12T02:28:06.873Z,15.70
2022-09-12T02:30:44.402Z,15.70
2022-09-12T02:33:24.945Z,15.70
2022-09-12T02:36:00.527Z,15.70
2022-09-12T02:38:40.989Z,15.70
2022-09-12T02:41:08.973Z,15.70
2022-09-12T02:43:37.917Z,15.70
2022-09-12T02:46:13.512Z,15.70
2022-09-12T02:48:43.535Z,15.70
2022-09-12T02:51:12.153Z,15.70
2022-09-12T02:53:40.502Z,15.70
2022-09-12T02:56:13.354Z,15.70
2022-09-12T02:58:41.070Z,15.70
2022-09-12T03:01:46.615Z,15.70
2022-09-12T03:04:38.677Z,15.70
2022-09-12T03:07:24.603Z,15.70
2022-09-12T03:10:16.563Z,15.70
2022-09-12T03:12:50.179Z,15.70
2022-09-12T03:15:51.596Z,15.70
2022-09-12T03:19:01.664Z,15.60
2022-09-12T03:21:37.187Z,15.60
2022-09-12T03:24:08.127Z,15.60
2022-09-12T03:26:39.755Z,15.60
2022-09-12T03:29:08.404Z,15.60
2022-09-12T03:31:35.906Z,15.60
2022-09-12T03:34:03.694Z,15.60
2022-09-12T03:36:31.482Z,15.60
2022-09-12T03:38:59.023Z,15.60
2022-09-12T03:41:26.554Z,15.60
2022-09-12T03:43:54.252Z,15.60
2022-09-12T03:46:21.754Z,15.60
2022-09-12T03:48:50.828Z,15.60
2022-09-12T03:51:18.393Z,15.60
2022-09-12T03:53:45.918Z,15.60
2022-09-12T03:56:14.772Z,15.60
2022-09-12T03:58:42.639Z,15.60
2022-09-12T04:01:12.749Z,15.60
2022-09-12T04:03:44.661Z,15.60
2022-09-12T04:06:14.824Z,15.60
2022-09-12T04:08:43.640Z,15.60
2022-09-12T04:11:14.380Z,15.70
2022-09-12T04:13:44.022Z,15.60
2022-09-12T04:16:13.643Z,15.70
2022-09-12T04:18:41.381Z,15.70
2022-09-12T04:21:15.013Z,15.70
2022-09-12T04:23:42.927Z,15.70
2022-09-12T04:26:11.233Z,15.70
2022-09-12T04:28:39.432Z,15.70
2022-09-12T04:31:11.447Z,15.70
2022-09-12T04:33:39.242Z,15.70
2022-09-12T04:36:16.590Z,15.70
2022-09-12T04:38:46.299Z,15.70
2022-09-12T04:41:16.282Z,15.70
2022-09-12T04:43:46.420Z,15.70
2022-09-12T04:46:16.648Z,15.70
2022-09-12T04:48:44.665Z,15.70
2022-09-12T04:51:18.455Z,15.70
2022-09-12T04:53:49.746Z,15.60
2022-09-12T04:56:17.705Z,15.70
2022-09-12T04:58:46.114Z,15.60
2022-09-12T05:01:19.580Z,15.70
2022-09-12T05:03:48.490Z,15.60
2022-09-12T05:06:21.204Z,15.60
2022-09-12T05:08:48.867Z,15.60
2022-09-12T05:14:32.589Z,15.60
2022-09-12T05:17:01.798Z,15.60
2022-09-12T05:19:31.008Z,15.60
2022-09-12T05:21:59.414Z,15.60
2022-09-12T05:24:27.045Z,15.60
2022-09-12T05:26:54.609Z,15.60
2022-09-12T05:29:22.140Z,15.60
2022-09-12T05:31:52.159Z,15.60
2022-09-12T05:34:21.030Z,15.60
2022-09-12T05:36:49.121Z,15.60
2022-09-12T05:39:16.796Z,15.60
2022-09-12T05:41:44.469Z,15.60
2022-09-12T05:44:14.292Z,15.60
2022-09-12T05:46:44.067Z,15.60
2022-09-12T05:49:13.393Z,15.60
2022-09-12T05:51:43.830Z,15.60
2022-09-12T05:54:14.688Z,15.60
2022-09-12T05:56:43.989Z,15.60
2022-09-12T05:59:20.226Z,15.60
2022-09-12T06:01:48.676Z,15.60
2022-09-12T06:04:17.384Z,15.60
2022-09-12T06:06:46.205Z,15.60
2022-09-12T06:09:16.051Z,15.60
2022-09-12T06:11:44.572Z,15.60
2022-09-12T06:14:14.303Z,15.60
2022-09-12T06:16:42.316Z,15.60
2022-09-12T06:19:19.313Z,15.60
2022-09-12T06:21:48.395Z,15.70
2022-09-12T06:24:17.671Z,15.70
2022-09-12T06:26:45.842Z,15.70
2022-09-12T06:29:14.293Z,15.70
2022-09-12T06:31:43.215Z,15.70
2022-09-12T06:34:14.064Z,15.80
2022-09-12T06:36:47.231Z,15.80
2022-09-12T06:39:17.437Z,15.70
2022-09-12T06:41:45.810Z,15.80
2022-09-12T06:44:16.707Z,15.80
2022-09-12T06:46:44.643Z,15.80
2022-09-12T06:49:12.551Z,15.80
2022-09-12T06:51:42.162Z,15.80
2022-09-12T06:54:12.703Z,15.80
2022-09-12T06:56:40.604Z,15.90
2022-09-12T06:59:08.508Z,15.80
2022-09-12T07:01:36.313Z,15.90
2022-09-12T07:04:04.875Z,15.90
2022-09-12T07:06:38.405Z,15.90
2022-09-12T07:09:07.613Z,15.90
2022-09-12T07:11:37.142Z,15.90
2022-09-12T07:14:06.617Z,16.00
2022-09-12T07:16:36.628Z,16.00
2022-09-12T07:19:06.642Z,16.00
2022-09-12T07:21:39.629Z,16.10
2022-09-12T07:24:09.602Z,16.10
2022-09-12T07:26:40.847Z,16.20
2022-09-12T07:29:35.940Z,16.30
2022-09-12T07:32:04.197Z,16.40
2022-09-12T07:34:32.053Z,16.50
2022-09-12T07:36:59.552Z,16.50
2022-09-12T07:39:27.139Z,16.60
2022-09-12T07:41:54.961Z,16.80
2022-09-12T07:44:22.895Z,16.90
2022-09-12T07:46:50.840Z,17.00
2022-09-12T07:49:18.479Z,17.20
2022-09-12T07:51:46.048Z,17.30
2022-09-12T07:54:13.799Z,17.40
2022-09-12T07:56:41.460Z,17.40
2022-09-12T07:59:09.110Z,17.50
2022-09-12T08:01:36.831Z,17.50
2022-09-12T08:04:05.289Z,17.50
2022-09-12T08:06:35.915Z,17.60
2022-09-12T08:09:05.634Z,17.60
2022-09-12T08:11:33.330Z,17.60
2022-09-12T08:14:02.985Z,17.70
2022-09-12T08:16:32.365Z,17.70
2022-09-12T08:19:04.483Z,17.80
2022-09-12T08:21:33.224Z,17.90
2022-09-12T08:24:03.879Z,18.00
2022-09-12T08:26:32.882Z,18.00
2022-09-12T08:29:00.802Z,18.10
2022-09-12T08:31:28.928Z,18.10
2022-09-12T08:33:57.572Z,18.00
2022-09-12T08:36:27.813Z,18.20
2022-09-12T08:39:00.921Z,18.20
2022-09-12T08:41:37.774Z,18.30
2022-09-12T08:44:23.868Z,18.40
2022-09-12T08:47:03.362Z,18.50
2022-09-12T08:49:36.494Z,18.60
2022-09-12T08:52:31.527Z,18.70
2022-09-12T08:55:00.393Z,18.80
2022-09-12T08:57:27.970Z,18.80
2022-09-12T08:59:56.256Z,18.80
2022-09-12T09:02:42.184Z,18.80
2022-09-12T09:05:23.840Z,18.80
2022-09-12T09:08:00.589Z,18.90
2022-09-12T09:10:45.175Z,18.90
2022-09-12T09:13:38.463Z,19.00
2022-09-12T09:16:07.168Z,19.10
2022-09-12T09:18:36.058Z,19.30
2022-09-12T09:21:19.031Z,19.60
2022-09-12T09:23:53.474Z,19.80
2022-09-12T09:26:35.967Z,20.00
2022-09-12T09:29:11.172Z,20.00
2022-09-12T09:31:39.742Z,20.00
2022-09-12T09:34:22.023Z,19.90
2022-09-12T09:36:57.960Z,19.90
2022-09-12T09:39:44.099Z,19.90
2022-09-12T09:42:27.144Z,19.90
2022-09-12T09:44:59.052Z,19.90
2022-09-12T09:47:26.687Z,20.10
2022-09-12T09:49:54.164Z,20.20
2022-09-12T09:52:28.490Z,20.30
2022-09-12T09:55:01.732Z,20.20
2022-09-12T09:57:35.253Z,20.20
2022-09-12T10:00:27.605Z,20.20
2022-09-12T10:03:12.748Z,20.20
2022-09-12T10:05:53.846Z,20.30
2022-09-12T10:08:33.659Z,20.40
2022-09-12T10:11:16.343Z,20.50
2022-09-12T10:13:58.442Z,20.70
2022-09-12T10:16:29.215Z,21.00
2022-09-12T10:18:59.290Z,21.30
2022-09-12T10:21:56.611Z,21.70
2022-09-12T10:24:35.391Z,22.30
2022-09-12T10:27:14.358Z,22.70
2022-09-12T10:29:48.602Z,22.80
2022-09-12T10:32:31.117Z,22.80
2022-09-12T10:35:26.946Z,22.70
2022-09-12T10:37:59.982Z,22.90
2022-09-12T10:40:38.912Z,23.10
2022-09-12T10:43:28.001Z,23.30
2022-09-12T10:46:00.881Z,23.30
2022-09-12T10:48:33.019Z,23.40
2022-09-12T10:51:01.562Z,23.80
2022-09-12T10:53:39.750Z,24.30
2022-09-12T10:56:14.733Z,24.80
2022-09-12T10:59:00.320Z,25.50
2022-09-12T11:01:47.218Z,26.30
2022-09-12T11:04:21.111Z,26.60
2022-09-12T11:07:03.751Z,26.70
2022-09-12T11:09:46.193Z,26.60
2022-09-12T11:12:19.739Z,26.30
2022-09-12T11:15:18.983Z,25.90
2022-09-12T11:17:46.992Z,25.50
2022-09-12T11:20:40.961Z,25.50
2022-09-12T11:23:36.252Z,25.50
2022-09-12T11:26:06.762Z,25.30
2022-09-12T11:28:48.103Z,25.00
2022-09-12T11:31:30.916Z,24.60
2022-09-12T11:34:00.516Z,24.40
2022-09-12T11:36:46.687Z,24.20
2022-09-12T11:39:22.959Z,24.10
2022-09-12T11:41:57.688Z,23.90
2022-09-12T11:44:55.074Z,23.80
2022-09-12T11:47:24.439Z,23.70
2022-09-12T11:49:54.804Z,23.50
2022-09-12T11:52:33.752Z,23.20
2022-09-12T11:55:07.732Z,22.90
2022-09-12T11:57:44.132Z,22.60
2022-09-12T12:00:33.957Z,22.30
2022-09-12T12:03:30.498Z,22.00
2022-09-12T12:06:01.498Z,21.90
2022-09-12T12:08:32.003Z,21.80
2022-09-12T12:11:02.235Z,21.80
2022-09-12T12:13:53.021Z,21.80
2022-09-12T12:16:26.097Z,21.80
2022-09-12T12:19:00.333Z,21.80
2022-09-12T12:21:45.153Z,21.70
2022-09-12T12:24:14.015Z,21.70
2022-09-12T12:26:41.525Z,21.60
2022-09-12T12:29:17.703Z,21.60
2022-09-12T12:32:01.975Z,21.60
2022-09-12T12:34:41.097Z,21.60
2022-09-12T12:37:25.369Z,21.60
2022-09-12T12:40:01.105Z,21.60
2022-09-12T12:42:35.160Z,21.60
2022-09-12T12:45:08.807Z,21.60
2022-09-12T12:47:36.329Z,21.60
2022-09-12T12:50:26.906Z,21.60
2022-09-12T12:52:58.464Z,21.50
2022-09-12T12:55:45.999Z,21.40
2022-09-12T12:58:31.796Z,21.30
2022-09-12T13:01:16.905Z,21.10
2022-09-12T13:03:57.094Z,21.00
2022-09-12T13:06:40.386Z,20.80
2022-09-12T13:09:09.303Z,20.80
2022-09-12T13:11:41.219Z,20.70
2022-09-12T13:15:03.814Z,20.60
2022-09-12T13:17:47.184Z,20.60
2022-09-12T13:20:28.197Z,20.50
2022-09-12T13:22:57.362Z,20.40
2022-09-12T13:25:37.493Z,20.30
2022-09-12T13:28:13.306Z,20.30
2022-09-12T13:30:44.687Z,20.20
2022-09-12T13:33:14.973Z,20.10
2022-09-12T13:35:59.263Z,20.00
2022-09-12T13:38:51.343Z,19.80
2022-09-12T13:41:30.979Z,19.60
2022-09-12T13:43:59.068Z,19.40
2022-09-12T13:46:33.971Z,19.30
2022-09-12T13:49:11.423Z,19.10
2022-09-12T13:51:39.021Z,19.10
2022-09-12T13:54:06.764Z,18.90
2022-09-12T13:56:34.478Z,18.90
2022-09-12T13:59:02.997Z,18.80
2022-09-12T14:01:45.128Z,18.80
2022-09-12T14:04:39.417Z,18.70
2022-09-12T14:07:20.367Z,18.70
2022-09-12T14:09:59.814Z,18.60
2022-09-12T14:12:42.811Z,18.60
2022-09-12T14:15:19.785Z,18.60
2022-09-12T14:17:53.071Z,18.50
2022-09-12T14:20:23.403Z,18.50
2022-09-12T14:22:52.515Z,18.40
2022-09-12T14:25:24.485Z,18.40
2022-09-12T14:27:54.691Z,18.40
2022-09-12T14:30:39.063Z,18.40
2022-09-12T14:33:12.786Z,18.40
2022-09-12T14:35:52.291Z,18.40
2022-09-12T14:38:31.143Z,18.50
2022-09-12T14:41:06.316Z,18.40
2022-09-12T14:43:36.206Z,18.50
2022-09-12T14:46:05.745Z,18.50
2022-09-12T14:48:43.138Z,18.50
2022-09-12T14:51:44.717Z,18.50
2022-09-12T14:54:29.207Z,18.50
2022-09-12T14:56:59.504Z,18.50
2022-09-12T14:59:27.275Z,18.60
2022-09-12T15:02:13.629Z,18.60
2022-09-12T15:04:43.298Z,18.60
2022-09-12T15:07:36.956Z,18.60
2022-09-12T15:10:25.581Z,18.60
2022-09-12T15:13:19.416Z,18.60
2022-09-12T15:15:49.436Z,18.70
2022-09-12T15:18:18.267Z,18.70
2022-09-12T15:20:47.682Z,18.70
2022-09-12T15:23:27.315Z,18.70
2022-09-12T15:25:54.959Z,18.80
2022-09-12T15:28:24.021Z,18.80
2022-09-12T15:30:54.650Z,18.80
2022-09-12T15:33:24.252Z,18.80
2022-09-12T15:35:53.482Z,18.80
2022-09-12T15:38:26.348Z,18.80
2022-09-12T15:40:54.685Z,18.80
2022-09-12T15:43:23.828Z,18.80
2022-09-12T15:45:52.413Z,18.80
2022-09-12T15:48:21.047Z,18.90
2022-09-12T15:50:48.613Z,18.90
2022-09-12T15:53:17.341Z,18.90
2022-09-12T15:55:45.450Z,18.90
2022-09-12T15:58:13.138Z,19.00
2022-09-12T16:00:41.090Z,19.00
2022-09-12T16:03:22.041Z,19.00
2022-09-12T16:05:50.387Z,19.00
2022-09-12T16:08:17.928Z,19.00
2022-09-12T16:10:49.534Z,19.00
2022-09-12T16:13:17.554Z,18.90
2022-09-12T16:15:45.123Z,18.90
2022-09-12T16:18:13.230Z,18.90
2022-09-12T16:20:41.121Z,18.90
2022-09-12T16:23:12.075Z,18.80
2022-09-12T16:25:43.081Z,18.80
2022-09-12T16:28:10.802Z,18.80
2022-09-12T16:30:38.362Z,18.80
2022-09-12T16:33:05.923Z,18.80
2022-09-12T16:35:33.491Z,18.80
2022-09-12T16:38:01.252Z,18.80
2022-09-12T16:40:28.787Z,18.80
2022-09-12T16:42:56.331Z,18.80
2022-09-12T16:45:23.867Z,18.90
2022-09-12T16:47:51.387Z,18.90
2022-09-12T16:50:18.912Z,18.90
2022-09-12T16:52:46.427Z,18.90
2022-09-12T16:55:14.011Z,18.90
2022-09-12T16:57:41.663Z,18.90
2022-09-12T17:00:09.996Z,18.90
2022-09-12T17:02:37.687Z,18.90
2022-09-12T17:05:05.840Z,18.90
2022-09-12T17:07:34.509Z,18.90
2022-09-12T17:10:02.047Z,18.90
2022-09-12T17:12:29.746Z,18.90
2022-09-12T17:14:58.287Z,18.90
2022-09-12T17:17:25.915Z,18.80
2022-09-12T17:19:53.742Z,18.80
2022-09-12T17:22:21.382Z,18.70
2022-09-12T17:24:49.656Z,18.70
2022-09-12T17:27:17.267Z,18.60
2022-09-12T17:29:44.758Z,18.50
2022-09-12T17:32:15.600Z,18.50
2022-09-12T17:34:45.040Z,18.50
2022-09-12T17:37:13.575Z,18.40
2022-09-12T17:39:41.256Z,18.30
2022-09-12T17:42:08.899Z,18.30
2022-09-12T17:44:37.157Z,18.20
2022-09-12T17:47:05.202Z,18.10
2022-09-12T17:49:33.965Z,18.10
2022-09-12T17:52:02.330Z,18.00
2022-09-12T17:54:31.024Z,17.90
2022-09-12T17:56:59.373Z,17.90
2022-09-12T17:59:27.210Z,17.80
2022-09-12T18:02:13.399Z,17.70
2022-09-12T18:04:42.124Z,17.70
2022-09-12T18:07:09.905Z,17.60
2022-09-12T18:09:37.635Z,17.60
2022-09-12T18:12:05.918Z,17.60
2022-09-12T18:14:33.875Z,17.50
2022-09-12T18:17:01.929Z,17.50
2022-09-12T18:19:29.539Z,17.50
2022-09-12T18:21:57.637Z,17.40
2022-09-12T18:24:25.241Z,17.40
2022-09-12T18:26:53.036Z,17.40
2022-09-12T18:29:20.725Z,17.30
2022-09-12T18:31:48.620Z,17.30
2022-09-12T18:34:17.238Z,17.30
2022-09-12T18:36:47.373Z,17.20
2022-09-12T18:39:15.753Z,17.20
2022-09-12T18:41:43.777Z,17.20
2022-09-12T18:44:12.193Z,17.20
2022-09-12T18:46:39.952Z,17.10
2022-09-12T18:49:09.357Z,17.10
2022-09-12T18:51:40.055Z,17.10
2022-09-12T18:54:12.870Z,17.00
2022-09-12T18:56:43.507Z,17.00
2022-09-12T18:59:15.382Z,17.00
2022-09-12T19:01:43.379Z,17.00
2022-09-12T19:04:12.808Z,17.00
2022-09-12T19:06:42.924Z,16.90
2022-09-12T19:09:12.485Z,16.90
2022-09-12T19:11:49.969Z,16.90
2022-09-12T19:14:20.343Z,16.90
2022-09-12T19:16:48.130Z,16.80
2022-09-12T19:19:15.849Z,16.80
2022-09-12T19:21:43.758Z,16.80
2022-09-12T19:24:11.759Z,16.70
2022-09-12T19:26:39.522Z,16.70
2022-09-12T19:29:08.424Z,16.60
2022-09-12T19:31:36.033Z,16.60
2022-09-12T19:34:06.109Z,16.60
2022-09-12T19:36:44.867Z,16.60
2022-09-12T19:39:14.911Z,16.50
2022-09-12T19:41:44.349Z,16.50
2022-09-12T19:44:13.819Z,16.40
2022-09-12T19:46:41.959Z,16.40
2022-09-12T19:49:11.649Z,16.30
2022-09-12T19:51:39.359Z,16.30
2022-09-12T19:54:07.825Z,16.20
2022-09-12T19:56:35.490Z,16.10
2022-09-12T19:59:06.778Z,16.10
2022-09-12T20:01:37.142Z,16.00
2022-09-12T20:04:05.412Z,16.00
2022-09-12T20:06:33.042Z,15.90
2022-09-12T20:09:00.765Z,15.90
2022-09-12T20:11:28.459Z,15.90
2022-09-12T20:13:56.062Z,15.80
2022-09-12T20:16:26.591Z,15.80
2022-09-12T20:18:57.133Z,15.80
2022-09-12T20:21:36.734Z,15.80
2022-09-12T20:24:11.589Z,15.70
2022-09-12T20:26:40.090Z,15.70
2022-09-12T20:29:08.848Z,15.70
2022-09-12T20:31:38.539Z,15.70
2022-09-12T20:34:07.272Z,15.70
2022-09-12T20:36:34.875Z,15.70
2022-09-12T20:39:03.577Z,15.60
2022-09-12T20:41:34.549Z,15.70
2022-09-12T20:44:02.331Z,15.60
2022-09-12T20:46:29.952Z,15.60
2022-09-12T20:48:58.576Z,15.60
2022-09-12T20:51:30.826Z,15.60
2022-09-12T20:54:03.574Z,15.60
2022-09-12T20:56:33.494Z,15.60
2022-09-12T20:59:01.469Z,15.60
2022-09-12T21:01:31.417Z,15.50
2022-09-12T21:04:00.877Z,15.50
2022-09-12T21:06:28.955Z,15.40
2022-09-12T21:08:59.871Z,15.40
2022-09-12T21:11:28.258Z,15.40
2022-09-12T21:13:56.368Z,15.30
2022-09-12T21:16:24.318Z,15.30
2022-09-12T21:18:57.931Z,15.30
2022-09-12T21:21:26.663Z,15.20
2022-09-12T21:23:58.523Z,15.20
2022-09-12T21:26:26.170Z,15.10
2022-09-12T21:28:53.803Z,15.00
2022-09-12T21:31:21.509Z,14.90
2022-09-12T21:33:49.194Z,14.90
2022-09-12T21:36:17.080Z,14.80
2022-09-12T21:38:44.671Z,14.70
2022-09-12T21:41:15.450Z,14.70
2022-09-12T21:43:44.159Z,14.60
2022-09-12T21:46:12.339Z,14.50
2022-09-12T21:48:40.180Z,14.40
2022-09-12T21:51:07.878Z,14.40
2022-09-12T21:53:35.864Z,14.30
2022-09-12T21:56:08.441Z,14.20
2022-09-12T21:58:36.764Z,14.20
2022-09-12T22:01:05.947Z,14.10
2022-09-12T22:03:33.752Z,14.10
2022-09-12T22:06:03.894Z,14.00
2022-09-12T22:08:33.488Z,14.00
2022-09-12T22:11:04.647Z,14.00
2022-09-12T22:13:32.523Z,13.90
2022-09-12T22:16:02.997Z,13.80
2022-09-12T22:18:35.924Z,13.80
2022-09-12T22:21:09.588Z,13.80
2022-09-12T22:23:55.564Z,13.70
2022-09-12T22:26:23.743Z,13.70
2022-09-12T22:28:51.710Z,13.70
2022-09-12T22:31:19.617Z,13.60
2022-09-12T22:33:48.094Z,13.70
2022-09-12T22:36:15.706Z,13.60
2022-09-12T22:38:43.457Z,13.60
2022-09-12T22:41:12.445Z,13.50
2022-09-12T22:43:40.155Z,13.50
2022-09-12T22:46:09.530Z,13.50
2022-09-12T22:48:38.177Z,13.50
2022-09-12T22:51:06.370Z,13.50
2022-09-12T22:53:34.522Z,13.40
2022-09-12T22:56:05.077Z,13.40
2022-09-12T22:58:36.758Z,13.40
2022-09-12T23:01:07.659Z,13.30
2022-09-12T23:03:36.415Z,13.30
2022-09-12T23:06:05.612Z,13.30
2022-09-12T23:08:35.246Z,13.30
2022-09-12T23:11:14.275Z,13.20
2022-09-12T23:13:44.084Z,13.20
2022-09-12T23:16:20.771Z,13.20
2022-09-12T23:18:49.054Z,13.20
2022-09-12T23:21:18.890Z,13.20
2022-09-12T23:23:46.846Z,13.20
2022-09-12T23:26:15.941Z,13.10
2022-09-12T23:28:55.242Z,13.10
2022-09-12T23:31:24.544Z,13.10
2022-09-12T23:33:55.814Z,13.10
2022-09-12T23:36:24.066Z,13.10
2022-09-12T23:38:52.121Z,13.00
2022-09-12T23:41:19.792Z,13.00
2022-09-12T23:43:47.395Z,13.00
2022-09-12T23:46:16.379Z,12.90
2022-09-12T23:48:44.678Z,12.90
2022-09-12T23:51:12.707Z,12.80
2022-09-12T23:53:41.232Z,12.80
2022-09-12T23:56:09.042Z,12.80
2022-09-12T23:58:36.824Z,12.70
